createdAt,value
2018-12-11T00:02:04.780Z,5.30
2018-12-11T00:05:05.771Z,5.92
2018-12-11T00:08:06.506Z,5.85
2018-12-11T00:11:06.990Z,5.17
2018-12-11T00:14:07.720Z,5.75
2018-12-11T00:17:09.738Z,5.17
2018-12-11T00:20:10.473Z,3.25
2018-12-11T00:23:11.468Z,6.10
2018-12-11T00:26:12.203Z,5.78
2018-12-11T00:29:12.682Z,5.35
2018-12-11T00:32:13.676Z,5.97
2018-12-11T00:35:14.413Z,5.62
2018-12-11T00:38:16.175Z,5.30
2018-12-11T00:41:16.907Z,3.50
2018-12-11T00:44:17.644Z,3.00
2018-12-11T00:47:18.383Z,5.25
2018-12-11T00:50:20.395Z,5.33
2018-12-11T00:53:21.643Z,6.05
2018-12-11T00:56:22.641Z,4.72
2018-12-11T00:59:23.373Z,5.37
2018-12-11T01:02:24.619Z,4.75
2018-12-11T01:05:26.124Z,2.77
2018-12-11T01:08:27.115Z,4.40
2018-12-11T01:11:27.849Z,3.05
2018-12-11T01:14:27.627Z,3.00
2018-12-11T01:17:28.812Z,3.08
2018-12-11T01:20:29.289Z,5.15
2018-12-11T01:23:30.025Z,3.60
2018-12-11T01:26:30.764Z,3.05
2018-12-11T01:29:31.754Z,4.35
2018-12-11T01:32:32.491Z,4.37
2018-12-11T01:35:33.227Z,3.45
2018-12-11T01:38:33.963Z,4.33
2018-12-11T01:41:34.698Z,4.30
2018-12-11T01:44:35.441Z,4.50
2018-12-11T01:47:36.170Z,2.50
2018-12-11T01:50:36.907Z,3.55
2018-12-11T01:53:38.669Z,2.77
2018-12-11T01:56:39.408Z,2.70
2018-12-11T01:59:40.394Z,2.40
2018-12-11T02:02:41.138Z,4.50
2018-12-11T02:05:41.612Z,4.50
2018-12-11T02:08:42.346Z,4.40
2018-12-11T02:11:43.349Z,2.80
2018-12-11T02:14:44.589Z,4.15
2018-12-11T02:17:45.323Z,2.95
2018-12-11T02:20:46.313Z,4.87
2018-12-11T02:23:48.076Z,4.78
2018-12-11T02:26:48.816Z,5.20
2018-12-11T02:29:50.058Z,2.67
2018-12-11T02:32:50.542Z,2.55
2018-12-11T02:35:51.272Z,4.67
2018-12-11T02:38:52.268Z,5.30
2018-12-11T02:41:54.282Z,4.75
2018-12-11T02:44:54.763Z,4.78
2018-12-11T02:47:58.572Z,2.52
2018-12-11T02:50:59.051Z,2.30
2018-12-11T02:53:59.787Z,3.08
2018-12-11T02:57:00.267Z,2.20
2018-12-11T03:00:02.033Z,2.58
2018-12-11T03:02:59.182Z,4.35
2018-12-11T03:05:59.914Z,2.62
2018-12-11T03:09:00.656Z,2.50
2018-12-11T03:12:01.384Z,2.40
2018-12-11T03:15:02.125Z,6.03
2018-12-11T03:18:02.621Z,6.25
2018-12-11T03:21:03.601Z,5.53
2018-12-11T03:24:04.846Z,5.28
2018-12-11T03:27:06.092Z,5.50
2018-12-11T03:30:06.832Z,5.95
2018-12-11T03:33:07.569Z,6.05
2018-12-11T03:36:08.301Z,5.50
2018-12-11T03:39:09.035Z,4.33
2018-12-11T03:42:09.769Z,3.15
2018-12-11T03:44:59.244Z,5.12
2018-12-11T03:48:00.237Z,5.92
2018-12-11T03:51:01.227Z,6.50
2018-12-11T03:54:05.803Z,2.95
2018-12-11T03:57:07.052Z,6.20
2018-12-11T04:00:07.786Z,3.15
2018-12-11T04:03:08.525Z,3.25
2018-12-11T04:06:10.026Z,5.47
2018-12-11T04:09:10.764Z,5.90
2018-12-11T04:12:11.497Z,6.00
2018-12-11T04:15:13.518Z,5.45
2018-12-11T04:18:14.250Z,3.42
2018-12-11T04:21:14.986Z,5.47
2018-12-11T04:24:15.554Z,2.90
2018-12-11T04:27:16.201Z,3.27
2018-12-11T04:30:18.224Z,3.20
2018-12-11T04:33:07.433Z,2.90
2018-12-11T04:36:08.174Z,2.85
2018-12-11T04:39:09.163Z,6.10
2018-12-11T04:42:14.772Z,5.80
2018-12-11T04:45:15.758Z,3.12
2018-12-11T04:48:18.027Z,5.95
2018-12-11T04:51:19.020Z,6.45
2018-12-11T04:54:19.498Z,3.10
2018-12-11T04:57:20.234Z,6.08
2018-12-11T05:00:20.968Z,2.90
2018-12-11T05:03:10.189Z,5.83
2018-12-11T05:06:11.178Z,4.75
2018-12-11T05:09:11.915Z,3.52
2018-12-11T05:12:12.905Z,5.87
2018-12-11T05:15:09.803Z,4.65
2018-12-11T05:18:10.537Z,5.15
2018-12-11T05:21:11.274Z,6.45
2018-12-11T05:24:12.269Z,5.40
2018-12-11T05:27:07.339Z,6.30
2018-12-11T05:30:08.107Z,5.53
2018-12-11T05:33:08.841Z,5.67
2018-12-11T05:36:10.344Z,2.80
2018-12-11T05:39:10.830Z,6.20
2018-12-11T05:42:08.746Z,2.80
2018-12-11T05:45:09.483Z,2.95
2018-12-11T05:48:10.471Z,5.78
2018-12-11T05:51:14.798Z,6.10
2018-12-11T05:54:15.279Z,5.97
2018-12-11T05:57:16.010Z,6.25
2018-12-11T06:00:16.750Z,6.20
2018-12-11T06:03:17.486Z,5.67
2018-12-11T06:06:19.243Z,5.12
2018-12-11T06:09:19.723Z,3.67
2018-12-11T06:12:21.496Z,5.72
2018-12-11T06:15:22.219Z,6.35
2018-12-11T06:18:22.954Z,5.12
2018-12-11T06:21:23.693Z,4.40
2018-12-11T06:24:24.425Z,2.87
2018-12-11T06:27:25.161Z,3.08
2018-12-11T06:30:25.902Z,2.77
2018-12-11T06:33:27.657Z,3.37
2018-12-11T06:36:29.416Z,3.30
2018-12-11T06:39:30.154Z,2.62
2018-12-11T06:42:31.146Z,4.80
2018-12-11T06:45:31.883Z,6.03
2018-12-11T06:48:36.213Z,5.20
2018-12-11T06:51:37.191Z,4.08
2018-12-11T06:54:37.935Z,3.87
2018-12-11T06:57:38.923Z,3.50
2018-12-11T07:00:42.730Z,3.05
2018-12-11T07:03:43.473Z,5.30
2018-12-11T07:06:37.553Z,5.47
2018-12-11T07:09:38.029Z,2.60
2018-12-11T07:12:38.761Z,6.00
2018-12-11T07:15:39.754Z,6.47
2018-12-11T07:18:40.233Z,2.77
2018-12-11T07:21:40.712Z,4.67
2018-12-11T07:24:41.450Z,5.85
2018-12-11T07:27:43.979Z,6.33
2018-12-11T07:30:44.972Z,6.78
2018-12-11T07:33:50.764Z,7.03
2018-12-11T07:36:45.927Z,3.30
2018-12-11T07:39:41.928Z,3.50
2018-12-11T07:42:43.818Z,2.72
2018-12-11T07:45:44.813Z,3.08
2018-12-11T07:48:46.572Z,3.20
2018-12-11T07:51:48.330Z,5.58
2018-12-11T07:54:49.077Z,6.30
2018-12-11T07:57:51.341Z,5.20
2018-12-11T08:00:52.075Z,5.87
2018-12-11T08:03:56.113Z,6.08
2018-12-11T08:06:55.854Z,3.58
2018-12-11T08:09:52.906Z,5.45
2018-12-11T08:12:53.487Z,3.80
2018-12-11T08:15:53.963Z,3.80
2018-12-11T08:18:54.700Z,3.25
2018-12-11T08:21:55.947Z,11.45
2018-12-11T08:24:56.683Z,12.82
2018-12-11T08:27:59.466Z,11.95
2018-12-11T08:30:59.943Z,6.67
2018-12-11T08:34:05.546Z,8.63
2018-12-11T08:37:06.793Z,10.53
2018-12-11T08:40:08.041Z,9.55
2018-12-11T08:43:08.525Z,6.70
2018-12-11T08:46:09.516Z,4.67
2018-12-11T08:49:11.273Z,9.25
2018-12-11T08:52:12.008Z,8.80
2018-12-11T08:55:13.002Z,7.28
2018-12-11T08:58:13.738Z,4.05
2018-12-11T09:01:14.220Z,3.90
2018-12-11T09:04:14.957Z,8.05
2018-12-11T09:07:15.691Z,4.33
2018-12-11T09:10:16.434Z,3.70
2018-12-11T09:13:17.161Z,4.40
2018-12-11T09:16:17.642Z,7.92
2018-12-11T09:19:18.379Z,7.10
2018-12-11T09:22:20.673Z,4.10
2018-12-11T09:25:22.410Z,4.15
2018-12-11T09:28:22.894Z,10.28
2018-12-11T09:31:23.373Z,8.60
2018-12-11T09:34:25.130Z,5.03
2018-12-11T09:37:26.122Z,4.87
2018-12-11T09:40:26.605Z,4.75
2018-12-11T09:43:27.593Z,5.03
2018-12-11T09:46:28.848Z,7.45
2018-12-11T09:49:30.092Z,10.08
2018-12-11T09:55:48.974Z,4.40
2018-12-11T09:58:49.963Z,4.42
2018-12-11T10:01:50.701Z,5.65
2018-12-11T10:04:51.948Z,7.30
2018-12-11T10:07:53.709Z,5.05
2018-12-11T10:10:46.764Z,8.88
2018-12-11T10:13:48.525Z,8.60
2018-12-11T10:16:50.026Z,5.00
2018-12-11T10:19:50.764Z,4.83
2018-12-11T10:22:51.505Z,3.72
2018-12-11T10:25:52.243Z,4.42
2018-12-11T10:28:52.713Z,8.75
2018-12-11T10:31:53.447Z,4.87
2018-12-11T10:34:50.319Z,4.17
2018-12-11T10:37:50.827Z,5.45
2018-12-11T10:40:51.568Z,6.00
2018-12-11T10:43:52.554Z,5.95
2018-12-11T10:46:53.312Z,5.30
2018-12-11T10:49:53.785Z,4.45
2018-12-11T10:52:54.507Z,4.28
2018-12-11T10:55:56.010Z,5.67
2018-12-11T10:58:57.515Z,8.05
2018-12-11T11:02:01.072Z,4.40
2018-12-11T11:05:01.807Z,8.48
2018-12-11T11:08:03.049Z,6.28
2018-12-11T11:11:06.359Z,4.20
2018-12-11T11:14:07.082Z,6.97
2018-12-11T11:17:10.123Z,3.98
2018-12-11T11:20:10.859Z,4.17
2018-12-11T11:23:11.852Z,4.72
2018-12-11T11:26:12.590Z,7.58
2018-12-11T11:29:13.322Z,11.12
2018-12-11T11:32:14.056Z,5.40
2018-12-11T11:35:17.619Z,4.47
2018-12-11T11:38:18.090Z,4.20
2018-12-11T11:41:18.571Z,8.48
2018-12-11T11:44:22.892Z,5.87
2018-12-11T11:47:23.629Z,7.70
2018-12-11T11:50:24.359Z,3.67
2018-12-11T11:53:25.099Z,4.62
2018-12-11T11:56:26.096Z,7.62
2018-12-11T11:59:26.825Z,7.22
2018-12-11T12:02:33.232Z,6.33
2018-12-11T12:05:28.042Z,6.75
2018-12-11T12:08:28.526Z,6.47
2018-12-11T12:11:28.746Z,4.75
2018-12-11T12:14:29.226Z,5.03
2018-12-11T12:17:29.964Z,3.85
2018-12-11T12:20:27.114Z,4.12
2018-12-11T12:23:27.869Z,4.00
2018-12-11T12:26:28.586Z,2.87
2018-12-11T12:29:29.321Z,3.47
2018-12-11T12:32:30.079Z,4.87
2018-12-11T12:35:31.051Z,4.05
2018-12-11T12:38:31.784Z,3.27
2018-12-11T12:41:32.778Z,4.40
2018-12-11T12:44:34.039Z,4.05
2018-12-11T12:47:34.766Z,5.08
2018-12-11T12:50:35.755Z,4.62
2018-12-11T12:53:36.238Z,5.20
2018-12-11T12:56:37.226Z,4.72
2018-12-11T12:59:37.961Z,5.03
2018-12-11T13:02:39.726Z,3.27
2018-12-11T13:05:44.813Z,4.67
2018-12-11T13:08:45.556Z,4.40
2018-12-11T13:11:46.282Z,6.62
2018-12-11T13:14:49.023Z,5.17
2018-12-11T13:17:48.282Z,4.05
2018-12-11T13:20:49.256Z,6.58
2018-12-11T13:23:51.021Z,6.17
2018-12-11T13:26:53.034Z,5.58
2018-12-11T13:29:55.569Z,7.87
2018-12-11T13:32:56.297Z,8.68
2018-12-11T13:35:58.057Z,5.40
2018-12-11T13:38:58.793Z,6.25
2018-12-11T13:41:59.532Z,7.00
2018-12-11T13:45:00.264Z,4.47
2018-12-11T13:48:00.745Z,3.95
2018-12-11T13:51:03.535Z,6.40
2018-12-11T13:54:04.009Z,6.45
2018-12-11T13:57:05.517Z,6.22
2018-12-11T14:00:07.274Z,5.08
2018-12-11T14:03:07.756Z,4.50
2018-12-11T14:06:09.515Z,7.30
2018-12-11T14:09:10.250Z,6.17
2018-12-11T14:15:33.995Z,4.35
2018-12-11T14:18:37.565Z,5.67
2018-12-11T14:21:39.049Z,7.15
2018-12-11T14:24:39.535Z,6.65
2018-12-11T14:27:41.035Z,5.00
2018-12-11T14:30:41.770Z,4.50
2018-12-11T14:33:55.058Z,5.30
2018-12-11T14:36:57.577Z,4.12
2018-12-11T14:40:00.874Z,4.47
2018-12-11T14:43:03.924Z,5.72
2018-12-11T14:46:06.700Z,4.90
2018-12-11T14:49:13.590Z,5.62
2018-12-11T14:52:19.730Z,4.50
2018-12-11T14:55:22.223Z,6.10
2018-12-11T14:58:24.753Z,3.40
2018-12-11T15:01:26.254Z,6.30
2018-12-11T15:04:29.293Z,7.45
2018-12-11T15:07:30.805Z,6.30
2018-12-11T15:10:34.869Z,5.58
2018-12-11T15:13:35.849Z,5.42
2018-12-11T15:16:36.850Z,5.92
2018-12-11T15:19:37.837Z,6.10
2018-12-11T15:22:38.833Z,7.87
2018-12-11T15:25:39.569Z,4.35
2018-12-11T15:31:53.834Z,4.47
2018-12-11T15:34:54.829Z,5.10
2018-12-11T15:37:55.560Z,3.40
2018-12-11T15:44:11.116Z,4.20
2018-12-11T15:47:12.879Z,6.30
2018-12-11T15:50:14.632Z,7.45
2018-12-11T15:53:15.375Z,3.98
2018-12-11T15:56:17.400Z,7.58
2018-12-11T15:59:19.922Z,7.60
2018-12-11T16:02:24.505Z,5.70
2018-12-11T16:05:25.237Z,4.58
2018-12-11T16:08:26.477Z,4.20
2018-12-11T16:11:27.470Z,5.20
2018-12-11T16:14:28.460Z,5.87
2018-12-11T16:18:26.537Z,4.85
2018-12-11T16:21:28.306Z,4.03
2018-12-11T16:24:29.563Z,4.35
2018-12-11T16:27:30.540Z,5.10
2018-12-11T16:30:32.296Z,3.37
2018-12-11T16:33:33.037Z,3.60
2018-12-11T16:36:34.794Z,4.37
2018-12-11T16:39:37.331Z,6.47
2018-12-11T16:42:44.743Z,5.78
2018-12-11T16:45:47.243Z,7.05
2018-12-11T16:48:47.983Z,5.97
2018-12-11T16:51:50.253Z,6.35
2018-12-11T16:54:50.735Z,6.83
2018-12-11T17:01:05.782Z,5.70
2018-12-11T17:04:06.764Z,6.70
2018-12-11T17:07:07.501Z,6.80
2018-12-11T17:10:08.494Z,7.15
2018-12-11T17:13:10.766Z,6.72
2018-12-11T17:16:11.502Z,5.62
2018-12-11T17:19:12.234Z,7.75
2018-12-11T17:22:14.000Z,8.10
2018-12-11T17:25:14.741Z,6.62
2018-12-11T17:28:12.395Z,5.40
2018-12-11T17:31:13.901Z,5.08
2018-12-11T17:34:14.892Z,6.35
2018-12-11T17:37:15.887Z,7.90
2018-12-11T17:40:17.646Z,5.97
2018-12-11T17:43:14.544Z,8.30
2018-12-11T17:46:17.071Z,6.08
2018-12-11T17:49:19.342Z,7.80
2018-12-11T17:52:20.331Z,9.40
2018-12-11T17:55:22.089Z,10.00
2018-12-11T17:58:23.097Z,9.95
2018-12-11T18:01:24.845Z,10.50
2018-12-11T18:07:40.399Z,9.53
2018-12-11T18:10:42.154Z,8.03
2018-12-11T18:13:46.229Z,11.03
2018-12-11T18:16:50.295Z,7.08
2018-12-11T18:19:55.630Z,7.87
2018-12-11T18:22:57.643Z,10.58
2018-12-11T18:25:59.930Z,10.48
2018-12-11T18:29:03.243Z,8.75
2018-12-11T18:31:58.066Z,10.58
2018-12-11T18:35:08.036Z,10.98
2018-12-11T18:38:01.869Z,11.10
2018-12-11T18:41:03.088Z,11.00
2018-12-11T18:43:56.652Z,9.58
2018-12-11T18:46:58.931Z,9.58
2018-12-11T18:50:04.026Z,11.50
2018-12-11T18:53:07.571Z,9.60
2018-12-11T18:56:09.074Z,12.03
2018-12-11T18:59:15.436Z,9.38
2018-12-11T19:02:18.503Z,11.70
2018-12-11T19:05:19.480Z,13.58
2018-12-11T19:08:22.766Z,13.58
2018-12-11T19:11:23.757Z,10.15
2018-12-11T19:14:28.335Z,11.10
2018-12-11T19:17:41.617Z,12.15
2018-12-11T19:20:43.133Z,12.40
2018-12-11T19:23:47.956Z,12.00
2018-12-11T19:26:49.196Z,15.28
2018-12-11T19:29:49.930Z,9.65
2018-12-11T19:32:50.927Z,13.50
2018-12-11T19:35:51.933Z,10.65
2018-12-11T19:38:54.016Z,11.95
2018-12-11T19:41:59.535Z,11.55
2018-12-11T19:45:02.349Z,13.50
2018-12-11T19:48:02.032Z,12.65
2018-12-11T19:51:02.770Z,12.73
2018-12-11T19:54:04.270Z,13.65
2018-12-11T19:57:05.546Z,12.82
2018-12-11T20:00:07.455Z,13.72
2018-12-11T20:03:11.856Z,14.60
2018-12-11T20:06:17.453Z,14.47
2018-12-11T20:09:10.765Z,12.85
2018-12-11T20:12:11.503Z,13.00
2018-12-11T20:15:12.234Z,13.30
2018-12-11T20:18:13.484Z,13.65
2018-12-11T20:21:14.987Z,12.05
2018-12-11T20:24:16.497Z,14.30
2018-12-11T20:27:10.069Z,13.03
2018-12-11T20:30:11.063Z,13.10
2018-12-11T20:33:12.571Z,13.10
2018-12-11T20:36:14.835Z,14.38
2018-12-11T20:39:17.866Z,11.33
2018-12-11T20:42:19.118Z,13.00
2018-12-11T20:45:21.192Z,13.00
2018-12-11T20:48:22.126Z,15.05
2018-12-11T20:51:22.859Z,11.78
2018-12-11T20:54:24.371Z,13.22
2018-12-11T20:57:27.668Z,14.30
2018-12-11T21:00:31.467Z,14.45
2018-12-11T21:03:32.976Z,12.23
2018-12-11T21:06:33.973Z,10.18
2018-12-11T21:09:35.475Z,15.70
2018-12-11T21:12:36.983Z,12.98
2018-12-11T21:15:38.735Z,11.78
2018-12-11T21:18:39.473Z,13.32
2018-12-11T21:21:40.715Z,10.05
2018-12-11T21:24:41.979Z,11.18
2018-12-11T21:27:43.724Z,10.65
2018-12-11T21:30:44.461Z,12.70
2018-12-11T21:33:46.248Z,10.15
2018-12-11T21:36:46.955Z,9.13
2018-12-11T21:39:48.974Z,13.25
2018-12-11T21:42:50.221Z,14.18
2018-12-11T21:45:53.004Z,13.40
2018-12-11T21:48:58.094Z,12.03
2018-12-11T21:51:59.599Z,15.45
2018-12-11T21:55:00.846Z,12.95
2018-12-11T21:58:01.585Z,12.53
2018-12-11T22:01:02.829Z,11.45
2018-12-11T22:04:03.567Z,12.95
2018-12-11T22:07:04.556Z,13.53
2018-12-11T22:10:05.295Z,14.25
2018-12-11T22:13:09.102Z,12.03
2018-12-11T22:16:10.859Z,14.60
2018-12-11T22:19:12.622Z,12.98
2018-12-11T22:22:13.355Z,14.25
2018-12-11T22:25:16.139Z,12.55
2018-12-11T22:28:16.873Z,15.08
2018-12-11T22:31:18.635Z,11.68
2018-12-11T22:34:20.904Z,9.90
2018-12-11T22:37:21.390Z,16.02
2018-12-11T22:40:21.870Z,16.15
2018-12-11T22:43:22.355Z,10.50
2018-12-11T22:46:23.091Z,10.95
2018-12-11T22:49:25.102Z,12.00
2018-12-11T22:52:25.508Z,13.05
2018-12-11T22:55:27.595Z,10.98
2018-12-11T22:58:28.845Z,11.50
2018-12-11T23:01:29.579Z,11.55
2018-12-11T23:04:31.595Z,14.47
2018-12-11T23:07:32.585Z,15.63
2018-12-11T23:10:33.321Z,14.38
2018-12-11T23:13:34.057Z,11.75
2018-12-11T23:16:31.998Z,14.07
2018-12-11T23:19:32.974Z,15.72
2018-12-11T23:22:31.658Z,15.53
2018-12-11T23:25:32.140Z,13.10
2018-12-11T23:28:33.900Z,10.50
2018-12-11T23:31:34.381Z,15.50
2018-12-11T23:34:35.116Z,18.67
2018-12-11T23:37:35.600Z,16.00
2018-12-11T23:40:36.843Z,17.50
2018-12-11T23:43:37.586Z,15.80
2018-12-11T23:46:38.316Z,11.30
2018-12-11T23:49:38.794Z,16.75
2018-12-11T23:52:40.555Z,16.82
2018-12-11T23:55:41.290Z,13.03
2018-12-11T23:58:42.027Z,16.25
